createdAt,value
2018-03-28T00:01:53.948Z,20.97
2018-03-28T00:04:21.495Z,24.23
2018-03-28T00:06:49.680Z,22.43
2018-03-28T00:09:17.315Z,22.13
2018-03-28T00:11:44.770Z,23.90
2018-03-28T00:14:12.334Z,21.80
2018-03-28T00:16:39.798Z,23.53
2018-03-28T00:19:07.483Z,21.10
2018-03-28T00:21:34.960Z,22.33
2018-03-28T00:24:02.444Z,23.00
2018-03-28T00:26:30.675Z,20.40
2018-03-28T00:28:58.154Z,24.83
2018-03-28T00:31:26.417Z,21.07
2018-03-28T00:33:53.949Z,20.77
2018-03-28T00:36:21.432Z,23.17
2018-03-28T00:38:48.987Z,22.80
2018-03-28T00:41:16.501Z,21.03
2018-03-28T00:43:43.948Z,23.33
2018-03-28T00:46:11.436Z,24.17
2018-03-28T00:48:38.939Z,22.53
2018-03-28T00:51:18.988Z,21.63
2018-03-28T00:53:46.464Z,22.53
2018-03-28T00:56:14.709Z,24.33
2018-03-28T00:58:42.176Z,19.63
2018-03-28T01:01:09.700Z,20.43
2018-03-28T01:03:37.808Z,22.87
2018-03-28T01:06:05.300Z,21.70
2018-03-28T01:08:32.806Z,20.57
2018-03-28T01:11:00.297Z,24.67
2018-03-28T01:13:28.555Z,20.87
2018-03-28T01:15:56.016Z,20.30
2018-03-28T01:18:23.531Z,21.20
2018-03-28T01:20:51.026Z,21.07
2018-03-28T01:23:18.528Z,20.23
2018-03-28T01:25:45.983Z,20.50
2018-03-28T01:28:13.548Z,18.60
2018-03-28T01:30:41.006Z,20.77
2018-03-28T01:33:08.490Z,18.17
2018-03-28T01:35:36.008Z,20.60
2018-03-28T01:38:04.241Z,21.07
2018-03-28T01:40:31.704Z,15.97
2018-03-28T01:42:59.184Z,21.77
2018-03-28T01:45:27.506Z,20.07
2018-03-28T01:47:55.019Z,19.40
2018-03-28T01:50:22.484Z,19.33
2018-03-28T01:52:50.728Z,20.40
2018-03-28T01:55:18.181Z,18.43
2018-03-28T01:57:45.657Z,19.97
2018-03-28T02:00:13.127Z,18.53
2018-03-28T02:02:41.393Z,20.27
2018-03-28T02:05:08.860Z,20.87
2018-03-28T02:07:36.343Z,19.97
2018-03-28T02:10:03.820Z,20.37
2018-03-28T02:12:31.279Z,19.00
2018-03-28T02:14:58.778Z,21.33
2018-03-28T02:17:26.241Z,19.97
2018-03-28T02:19:53.742Z,21.03
2018-03-28T02:22:21.253Z,19.77
2018-03-28T02:24:48.740Z,20.30
2018-03-28T02:27:16.986Z,17.20
2018-03-28T02:29:44.457Z,19.87
2018-03-28T02:32:12.104Z,19.77
2018-03-28T02:34:39.576Z,18.50
2018-03-28T02:37:07.048Z,17.13
2018-03-28T02:39:35.275Z,21.13
2018-03-28T02:42:02.784Z,19.00
2018-03-28T02:44:31.049Z,18.57
2018-03-28T02:46:58.595Z,19.17
2018-03-28T02:49:26.046Z,19.23
2018-03-28T02:51:53.682Z,21.70
2018-03-28T02:54:21.161Z,21.13
2018-03-28T02:56:48.633Z,19.73
2018-03-28T02:59:16.115Z,22.97
2018-03-28T03:01:44.372Z,21.93
2018-03-28T03:04:11.847Z,19.47
2018-03-28T03:06:40.219Z,21.40
2018-03-28T03:09:07.676Z,21.40
2018-03-28T03:11:35.972Z,20.83
2018-03-28T03:14:03.561Z,19.73
2018-03-28T03:16:31.122Z,20.67
2018-03-28T03:18:58.776Z,23.67
2018-03-28T03:21:26.237Z,23.67
2018-03-28T03:23:53.768Z,24.47
2018-03-28T03:26:21.987Z,25.73
2018-03-28T03:28:49.474Z,23.97
2018-03-28T03:31:16.983Z,23.70
2018-03-28T03:33:44.455Z,24.37
2018-03-28T03:36:11.911Z,25.37
2018-03-28T03:38:39.662Z,26.60
2018-03-28T03:41:07.116Z,27.27
2018-03-28T03:43:34.725Z,28.93
2018-03-28T03:46:02.201Z,28.80
2018-03-28T03:48:30.440Z,26.40
2018-03-28T03:50:57.907Z,24.93
2018-03-28T03:53:25.386Z,26.50
2018-03-28T03:55:52.862Z,24.73
2018-03-28T03:58:21.223Z,28.13
2018-03-28T04:00:48.695Z,30.27
2018-03-28T04:03:16.928Z,26.13
2018-03-28T04:05:44.490Z,29.10
2018-03-28T04:08:12.192Z,27.27
2018-03-28T04:10:40.543Z,30.60
2018-03-28T04:13:08.031Z,29.57
2018-03-28T04:15:36.301Z,38.60
2018-03-28T04:18:04.527Z,27.90
2018-03-28T04:20:32.011Z,29.83
2018-03-28T04:22:59.488Z,28.67
2018-03-28T04:25:27.053Z,27.50
2018-03-28T04:27:55.276Z,27.90
2018-03-28T04:30:22.788Z,27.57
2018-03-28T04:32:51.016Z,31.00
2018-03-28T04:35:18.508Z,34.33
2018-03-28T04:37:45.970Z,32.77
2018-03-28T04:40:13.538Z,32.60
2018-03-28T04:42:41.834Z,30.97
2018-03-28T04:45:09.336Z,28.90
2018-03-28T04:47:37.414Z,27.17
2018-03-28T04:50:04.878Z,28.00
2018-03-28T04:52:32.348Z,28.87
2018-03-28T04:54:59.875Z,27.87
2018-03-28T04:57:27.349Z,32.83
2018-03-28T04:59:54.812Z,32.20
2018-03-28T05:02:22.314Z,30.93
2018-03-28T05:04:50.794Z,30.90
2018-03-28T05:07:18.284Z,29.23
2018-03-28T05:09:45.782Z,31.53
2018-03-28T05:12:13.288Z,35.97
2018-03-28T05:14:40.747Z,33.30
2018-03-28T05:17:08.223Z,31.37
2018-03-28T05:19:35.708Z,33.03
2018-03-28T05:22:03.222Z,31.13
2018-03-28T05:24:30.703Z,36.27
2018-03-28T05:26:58.209Z,39.60
2018-03-28T05:29:26.466Z,34.03
2018-03-28T05:31:53.987Z,34.00
2018-03-28T05:34:21.484Z,39.93
2018-03-28T05:36:48.953Z,38.03
2018-03-28T05:39:16.469Z,40.73
2018-03-28T05:41:44.031Z,37.47
2018-03-28T05:44:11.566Z,38.33
2018-03-28T05:46:39.048Z,39.03
2018-03-28T05:49:07.312Z,43.93
2018-03-28T05:51:34.783Z,43.53
2018-03-28T05:54:02.280Z,39.60
2018-03-28T05:56:30.576Z,46.30
2018-03-28T05:58:58.123Z,43.67
2018-03-28T06:01:26.416Z,46.60
2018-03-28T06:03:54.663Z,48.00
2018-03-28T06:06:22.121Z,55.47
2018-03-28T06:08:50.375Z,52.40
2018-03-28T06:11:17.888Z,51.67
2018-03-28T06:13:45.399Z,59.43
2018-03-28T06:16:12.903Z,53.77
2018-03-28T06:18:40.436Z,69.50
2018-03-28T06:21:08.675Z,62.17
2018-03-28T06:23:36.134Z,65.93
2018-03-28T06:26:03.727Z,63.00
2018-03-28T06:28:31.240Z,57.93
2018-03-28T06:30:58.736Z,69.03
2018-03-28T06:33:26.273Z,62.93
2018-03-28T06:35:53.763Z,65.03
2018-03-28T06:38:21.209Z,69.10
2018-03-28T06:40:48.693Z,71.63
2018-03-28T06:43:16.982Z,65.17
2018-03-28T06:45:44.485Z,68.63
2018-03-28T06:48:12.806Z,66.03
2018-03-28T06:50:41.043Z,68.53
2018-03-28T06:53:08.511Z,71.30
2018-03-28T06:55:36.030Z,63.03
2018-03-28T06:58:03.536Z,63.50
2018-03-28T07:00:31.032Z,66.67
2018-03-28T07:02:58.530Z,64.93
2018-03-28T07:05:26.050Z,69.37
2018-03-28T07:07:54.302Z,66.80
2018-03-28T07:10:22.564Z,63.10
2018-03-28T07:12:50.073Z,63.13
2018-03-28T07:15:17.565Z,64.00
2018-03-28T07:17:45.068Z,65.27
2018-03-28T07:20:12.575Z,60.43
2018-03-28T07:22:40.102Z,77.40
2018-03-28T07:25:07.596Z,81.20
2018-03-28T07:27:35.092Z,73.83
2018-03-28T07:30:03.460Z,71.93
2018-03-28T07:32:30.927Z,83.20
2018-03-28T07:34:59.176Z,80.27
2018-03-28T07:37:26.725Z,85.03
2018-03-28T07:39:54.232Z,80.60
2018-03-28T07:42:22.479Z,77.00
2018-03-28T07:44:50.041Z,72.27
2018-03-28T07:47:17.599Z,80.53
2018-03-28T07:49:45.582Z,72.47
2018-03-28T07:52:13.828Z,67.50
2018-03-28T07:54:41.307Z,71.40
2018-03-28T07:57:08.799Z,71.57
2018-03-28T07:59:36.292Z,63.87
2018-03-28T08:02:03.806Z,63.97
2018-03-28T08:04:32.095Z,64.37
2018-03-28T08:06:59.560Z,61.93
2018-03-28T08:09:27.048Z,56.60
2018-03-28T08:11:54.523Z,51.80
2018-03-28T08:14:22.120Z,57.43
2018-03-28T08:16:50.351Z,57.80
2018-03-28T08:19:17.885Z,56.07
2018-03-28T08:21:46.078Z,58.60
2018-03-28T08:24:13.593Z,62.07
2018-03-28T08:26:41.178Z,59.47
2018-03-28T08:29:08.689Z,57.13
2018-03-28T08:31:36.153Z,54.70
2018-03-28T08:34:04.405Z,59.93
2018-03-28T08:36:32.076Z,57.20
2018-03-28T08:38:59.588Z,66.83
2018-03-28T08:41:27.097Z,61.57
2018-03-28T08:43:55.404Z,57.10
2018-03-28T08:46:23.643Z,56.60
2018-03-28T08:48:51.112Z,52.83
2018-03-28T08:51:18.625Z,58.63
2018-03-28T08:53:46.143Z,53.07
2018-03-28T08:56:14.390Z,55.47
2018-03-28T08:58:41.858Z,51.20
2018-03-28T09:01:09.384Z,56.10
2018-03-28T09:03:36.861Z,54.33
2018-03-28T09:06:04.356Z,61.40
2018-03-28T09:08:32.630Z,54.40
2018-03-28T09:11:00.993Z,64.33
2018-03-28T09:13:28.491Z,57.07
2018-03-28T09:15:55.979Z,59.73
2018-03-28T09:18:24.099Z,60.13
2018-03-28T09:20:52.342Z,62.53
2018-03-28T09:23:19.816Z,64.57
2018-03-28T09:25:47.322Z,64.50
2018-03-28T09:28:14.817Z,64.90
2018-03-28T09:30:42.353Z,62.63
2018-03-28T09:33:09.856Z,65.83
2018-03-28T09:35:37.363Z,63.60
2018-03-28T09:38:04.880Z,68.27
2018-03-28T09:40:33.124Z,65.00
2018-03-28T09:43:01.980Z,62.37
2018-03-28T09:45:29.445Z,60.23
2018-03-28T09:47:57.671Z,59.87
2018-03-28T09:50:25.227Z,51.90
2018-03-28T09:52:52.732Z,51.40
2018-03-28T09:55:20.244Z,47.67
2018-03-28T09:57:47.753Z,49.00
2018-03-28T10:00:20.992Z,42.83
2018-03-28T10:02:48.479Z,47.00
2018-03-28T10:05:16.707Z,44.03
2018-03-28T10:07:44.198Z,42.80
2018-03-28T10:10:12.430Z,45.83
2018-03-28T10:12:40.484Z,43.20
2018-03-28T10:15:07.964Z,44.83
2018-03-28T10:17:35.440Z,45.17
2018-03-28T10:20:03.939Z,38.03
2018-03-28T10:22:32.178Z,38.87
2018-03-28T10:24:59.676Z,37.13
2018-03-28T10:27:27.991Z,36.07
2018-03-28T10:29:55.515Z,36.07
2018-03-28T10:32:23.013Z,37.93
2018-03-28T10:34:50.623Z,37.37
2018-03-28T10:37:18.120Z,33.90
2018-03-28T10:39:45.638Z,36.53
2018-03-28T10:42:13.142Z,42.33
2018-03-28T10:44:40.651Z,38.17
2018-03-28T10:47:08.151Z,39.60
2018-03-28T10:49:35.710Z,37.10
2018-03-28T10:52:03.197Z,36.27
2018-03-28T10:54:30.676Z,37.27
2018-03-28T10:56:58.188Z,35.73
2018-03-28T10:59:25.691Z,37.20
2018-03-28T11:01:53.223Z,36.13
2018-03-28T11:04:20.723Z,34.60
2018-03-28T11:06:49.727Z,33.33
2018-03-28T11:09:17.204Z,35.73
2018-03-28T11:11:44.692Z,31.37
2018-03-28T11:14:12.159Z,32.47
2018-03-28T11:16:39.656Z,32.73
2018-03-28T11:19:07.165Z,32.87
2018-03-28T11:21:34.704Z,31.57
2018-03-28T11:24:02.232Z,33.03
2018-03-28T11:26:30.465Z,31.77
2018-03-28T11:28:57.959Z,32.93
2018-03-28T11:31:25.420Z,35.13
2018-03-28T11:33:52.939Z,31.50
2018-03-28T11:36:20.427Z,31.67
2018-03-28T11:38:47.933Z,33.83
2018-03-28T11:41:15.446Z,35.27
2018-03-28T11:43:42.945Z,31.43
2018-03-28T11:46:10.412Z,34.37
2018-03-28T11:48:37.903Z,31.83
2018-03-28T11:51:05.880Z,35.97
2018-03-28T11:53:33.394Z,35.73
2018-03-28T11:56:00.886Z,33.70
2018-03-28T11:58:28.349Z,34.60
2018-03-28T12:00:55.861Z,34.60
2018-03-28T12:03:23.339Z,32.20
2018-03-28T12:05:50.820Z,37.73
2018-03-28T12:08:18.346Z,34.00
2018-03-28T12:10:45.835Z,33.07
2018-03-28T12:13:13.349Z,33.47
2018-03-28T12:15:41.618Z,29.33
2018-03-28T12:18:09.088Z,29.57
2018-03-28T12:20:36.591Z,24.43
2018-03-28T12:23:04.187Z,27.30
2018-03-28T12:25:31.688Z,29.20
2018-03-28T12:27:59.196Z,25.87
2018-03-28T12:30:26.726Z,28.77
2018-03-28T12:32:54.254Z,26.70
2018-03-28T12:35:21.769Z,29.77
2018-03-28T12:37:49.217Z,29.40
2018-03-28T12:40:16.741Z,30.50
2018-03-28T12:42:44.301Z,29.57
2018-03-28T12:45:11.815Z,30.33
2018-03-28T12:47:39.296Z,29.50
2018-03-28T12:50:06.906Z,31.10
2018-03-28T12:52:34.494Z,30.57
2018-03-28T12:55:01.951Z,33.23
2018-03-28T12:57:29.439Z,36.10
2018-03-28T12:59:56.934Z,35.13
2018-03-28T13:02:24.458Z,34.37
2018-03-28T13:04:52.823Z,34.13
2018-03-28T13:07:21.075Z,49.00
2018-03-28T13:09:48.670Z,47.57
2018-03-28T13:12:16.927Z,59.87
2018-03-28T13:14:45.156Z,60.83
2018-03-28T13:17:12.669Z,62.10
2018-03-28T13:19:40.927Z,64.47
2018-03-28T13:22:08.440Z,73.60
2018-03-28T13:24:35.945Z,71.67
2018-03-28T13:27:04.218Z,74.80
2018-03-28T13:29:31.672Z,75.50
2018-03-28T13:31:59.143Z,75.83
2018-03-28T13:34:26.594Z,77.40
2018-03-28T13:36:54.845Z,74.00
2018-03-28T13:39:22.322Z,79.13
2018-03-28T13:41:49.819Z,75.10
2018-03-28T13:44:18.159Z,68.50
2018-03-28T13:46:45.649Z,64.30
2018-03-28T13:49:14.060Z,62.93
2018-03-28T13:51:41.571Z,57.90
2018-03-28T13:54:09.837Z,57.80
2018-03-28T13:56:37.325Z,61.90
2018-03-28T13:59:04.812Z,61.00
2018-03-28T14:01:32.311Z,63.77
2018-03-28T14:03:59.846Z,63.80
2018-03-28T14:06:27.333Z,67.13
2018-03-28T14:08:54.856Z,65.67
2018-03-28T14:11:23.055Z,64.97
2018-03-28T14:13:50.581Z,61.87
2018-03-28T14:16:18.167Z,65.67
2018-03-28T14:18:45.712Z,66.40
2018-03-28T14:21:13.185Z,61.47
2018-03-28T14:23:40.636Z,63.10
2018-03-28T14:26:08.212Z,64.00
2018-03-28T14:28:35.727Z,61.63
2018-03-28T14:31:03.247Z,68.77
2018-03-28T14:33:31.472Z,67.03
2018-03-28T14:35:58.948Z,58.10
2018-03-28T14:38:26.482Z,58.77
2018-03-28T14:40:53.953Z,58.10
2018-03-28T14:43:21.416Z,62.57
2018-03-28T14:45:49.528Z,67.70
2018-03-28T14:48:17.797Z,66.27
2018-03-28T14:50:45.302Z,65.87
2018-03-28T14:53:12.835Z,64.63
2018-03-28T14:55:41.139Z,70.23
2018-03-28T14:58:08.593Z,67.53
2018-03-28T15:00:36.059Z,67.40
2018-03-28T15:03:03.547Z,60.57
2018-03-28T15:05:31.052Z,63.17
2018-03-28T15:07:58.559Z,63.37
2018-03-28T15:10:26.818Z,65.77
2018-03-28T15:12:54.310Z,59.97
2018-03-28T15:15:21.849Z,62.27
2018-03-28T15:17:49.429Z,58.80
2018-03-28T15:20:16.905Z,63.40
2018-03-28T15:22:45.295Z,56.13
2018-03-28T15:25:13.652Z,58.07
2018-03-28T15:27:41.125Z,61.50
2018-03-28T15:30:09.388Z,64.03
2018-03-28T15:32:37.699Z,60.97
2018-03-28T15:35:05.893Z,59.07
2018-03-28T15:37:33.385Z,56.87
2018-03-28T15:40:00.867Z,62.50
2018-03-28T15:42:29.120Z,55.10
2018-03-28T15:44:56.592Z,62.03
2018-03-28T15:47:24.857Z,58.03
2018-03-28T15:49:52.332Z,58.60
2018-03-28T15:52:20.622Z,50.90
2018-03-28T15:54:48.864Z,53.20
2018-03-28T15:57:16.339Z,48.20
2018-03-28T15:59:43.852Z,55.73
2018-03-28T16:02:11.328Z,52.43
2018-03-28T16:04:38.807Z,47.93
2018-03-28T16:07:06.322Z,53.47
2018-03-28T16:09:33.875Z,54.70
2018-03-28T16:12:01.347Z,50.93
2018-03-28T16:14:28.833Z,59.70
2018-03-28T16:16:56.312Z,62.27
2018-03-28T16:19:24.558Z,58.83
2018-03-28T16:21:52.037Z,64.93
2018-03-28T16:24:19.655Z,67.60
2018-03-28T16:26:47.144Z,77.97
2018-03-28T16:29:14.648Z,70.87
2018-03-28T16:31:42.154Z,66.97
2018-03-28T16:34:09.721Z,76.47
2018-03-28T16:36:37.255Z,63.40
2018-03-28T16:39:04.780Z,66.53
2018-03-28T16:41:32.301Z,71.77
2018-03-28T16:43:59.921Z,69.90
2018-03-28T16:46:27.475Z,64.20
2018-03-28T16:48:55.054Z,70.30
2018-03-28T16:51:22.573Z,64.30
2018-03-28T16:53:50.080Z,63.10
2018-03-28T16:56:17.987Z,52.17
2018-03-28T16:58:46.312Z,55.57
2018-03-28T17:01:13.822Z,59.47
2018-03-28T17:03:41.352Z,61.43
2018-03-28T17:06:08.847Z,49.07
2018-03-28T17:08:37.084Z,57.43
2018-03-28T17:11:04.600Z,59.00
2018-03-28T17:13:32.124Z,53.00
2018-03-28T17:15:59.648Z,46.43
2018-03-28T17:18:27.154Z,41.30
2018-03-28T17:20:55.445Z,34.27
2018-03-28T17:23:23.844Z,29.07
2018-03-28T17:25:51.394Z,29.70
2018-03-28T17:28:18.859Z,27.70
2018-03-28T17:30:46.429Z,29.23
2018-03-28T17:33:13.972Z,28.83
2018-03-28T17:35:41.708Z,25.47
2018-03-28T17:38:09.224Z,26.13
2018-03-28T17:40:36.774Z,25.00
2018-03-28T17:43:04.253Z,23.63
2018-03-28T17:45:31.749Z,24.43
2018-03-28T17:48:00.004Z,26.23
2018-03-28T17:50:27.479Z,20.87
2018-03-28T17:52:55.707Z,23.87
2018-03-28T17:55:23.195Z,22.17
2018-03-28T17:57:50.655Z,19.50
2018-03-28T18:00:18.130Z,20.60
2018-03-28T18:02:46.368Z,22.53
2018-03-28T18:05:14.349Z,22.83
2018-03-28T18:07:41.807Z,19.67
2018-03-28T18:10:09.468Z,23.67
2018-03-28T18:12:36.964Z,22.43
2018-03-28T18:15:05.199Z,18.63
2018-03-28T18:17:32.862Z,24.40
2018-03-28T18:20:00.329Z,22.13
2018-03-28T18:22:27.812Z,20.80
2018-03-28T18:24:56.049Z,22.13
2018-03-28T18:27:23.539Z,24.67
2018-03-28T18:29:51.894Z,23.17
2018-03-28T18:32:20.190Z,20.27
2018-03-28T18:34:47.707Z,17.93
2018-03-28T18:37:15.213Z,22.50
2018-03-28T18:39:43.459Z,22.10
2018-03-28T18:42:11.739Z,20.80
2018-03-28T18:44:39.206Z,22.93
2018-03-28T18:47:06.692Z,23.00
2018-03-28T18:49:34.969Z,26.97
2018-03-28T18:52:03.210Z,26.83
2018-03-28T18:54:31.393Z,25.67
2018-03-28T18:56:58.873Z,29.70
2018-03-28T18:59:27.145Z,29.23
2018-03-28T19:01:55.395Z,29.37
2018-03-28T19:04:22.884Z,34.97
2018-03-28T19:06:51.100Z,29.13
2018-03-28T19:09:19.234Z,31.77
2018-03-28T19:11:47.462Z,24.20
2018-03-28T19:14:14.952Z,20.77
2018-03-28T19:16:42.425Z,16.93
2018-03-28T19:19:10.680Z,15.17
2018-03-28T19:21:38.162Z,16.00
2018-03-28T19:24:05.912Z,14.17
2018-03-28T19:26:33.382Z,19.93
2018-03-28T19:29:01.642Z,14.03
2018-03-28T19:31:29.117Z,13.33
2018-03-28T19:33:57.402Z,14.50
2018-03-28T19:36:24.833Z,12.97
2018-03-28T19:38:52.316Z,14.77
2018-03-28T19:41:19.862Z,13.43
2018-03-28T19:43:48.101Z,13.40
2018-03-28T19:46:15.603Z,14.20
2018-03-28T19:48:43.828Z,20.47
2018-03-28T19:51:11.425Z,18.80
2018-03-28T19:53:38.937Z,17.77
2018-03-28T19:56:06.523Z,16.50
2018-03-28T19:58:34.063Z,16.67
2018-03-28T20:01:01.546Z,15.07
2018-03-28T20:03:29.067Z,19.23
2018-03-28T20:05:56.549Z,17.83
2018-03-28T20:08:24.076Z,20.13
2018-03-28T20:10:51.780Z,19.03
2018-03-28T20:13:19.368Z,14.90
2018-03-28T20:15:47.637Z,15.63
2018-03-28T20:18:15.152Z,17.10
2018-03-28T20:20:42.777Z,18.97
2018-03-28T20:23:11.019Z,16.30
2018-03-28T20:25:38.498Z,15.40
2018-03-28T20:28:06.765Z,14.17
2018-03-28T20:30:34.266Z,13.23
2018-03-28T20:33:01.772Z,13.80
2018-03-28T20:35:30.110Z,16.20
2018-03-28T20:37:58.128Z,11.50
2018-03-28T20:40:26.205Z,13.27
2018-03-28T20:42:53.742Z,12.93
2018-03-28T20:45:21.245Z,13.53
2018-03-28T20:47:49.488Z,14.63
2018-03-28T20:50:16.964Z,20.10
2018-03-28T20:52:45.234Z,20.80
2018-03-28T20:55:13.517Z,22.00
2018-03-28T20:57:47.843Z,26.20
2018-03-28T21:00:16.071Z,25.90
2018-03-28T21:02:43.575Z,28.23
2018-03-28T21:05:11.837Z,28.13
2018-03-28T21:07:39.413Z,24.43
2018-03-28T21:10:07.641Z,22.07
2018-03-28T21:12:35.223Z,17.73
2018-03-28T21:15:02.843Z,14.07
2018-03-28T21:17:30.312Z,5.27
2018-03-28T21:19:57.786Z,6.97
2018-03-28T21:22:25.290Z,9.97
2018-03-28T21:24:54.060Z,7.33
2018-03-28T21:27:21.533Z,8.07
2018-03-28T21:29:49.820Z,12.17
2018-03-28T21:32:17.283Z,12.40
2018-03-28T21:34:44.773Z,13.90
2018-03-28T21:37:12.246Z,13.40
2018-03-28T21:39:39.760Z,14.80
2018-03-28T21:42:07.973Z,14.47
2018-03-28T21:44:35.461Z,14.13
2018-03-28T21:47:02.932Z,15.80
2018-03-28T21:49:31.203Z,8.67
2018-03-28T21:51:58.678Z,11.47
2018-03-28T21:54:26.939Z,12.00
2018-03-28T21:56:54.436Z,13.67
2018-03-28T21:59:21.927Z,10.80
2018-03-28T22:01:49.482Z,9.90
2018-03-28T22:04:16.967Z,8.40
2018-03-28T22:06:45.300Z,6.97
2018-03-28T22:09:12.786Z,5.13
2018-03-28T22:11:40.296Z,7.60
2018-03-28T22:14:07.799Z,8.90
2018-03-28T22:16:35.315Z,11.07
2018-03-28T22:19:02.816Z,8.87
2018-03-28T22:21:30.340Z,10.53
2018-03-28T22:23:57.827Z,9.03
2018-03-28T22:26:25.376Z,10.30
2018-03-28T22:28:52.855Z,11.00
2018-03-28T22:31:20.374Z,8.63
2018-03-28T22:33:47.840Z,11.43
2018-03-28T22:36:15.328Z,12.13
2018-03-28T22:38:42.800Z,9.97
2018-03-28T22:41:10.292Z,8.30
2018-03-28T22:43:38.560Z,7.67
2018-03-28T22:46:06.824Z,9.13
2018-03-28T22:48:35.072Z,8.30
2018-03-28T22:51:02.548Z,9.20
2018-03-28T22:53:30.052Z,8.77
2018-03-28T22:55:57.555Z,9.17
2018-03-28T22:58:25.112Z,6.37
2018-03-28T23:00:52.577Z,7.53
2018-03-28T23:03:20.087Z,7.47
2018-03-28T23:05:47.823Z,6.57
2018-03-28T23:10:49.966Z,4.87
2018-03-28T23:13:17.548Z,7.13
2018-03-28T23:15:45.045Z,5.67
2018-03-28T23:18:12.563Z,5.73
2018-03-28T23:20:40.081Z,4.50
2018-03-28T23:23:07.608Z,5.27
2018-03-28T23:25:35.832Z,5.87
2018-03-28T23:28:03.304Z,6.67
2018-03-28T23:30:30.811Z,6.50
2018-03-28T23:32:58.309Z,5.00
2018-03-28T23:35:25.800Z,5.70
2018-03-28T23:37:53.260Z,6.43
2018-03-28T23:40:21.543Z,6.13
2018-03-28T23:42:49.760Z,6.50
2018-03-28T23:45:17.249Z,6.17
2018-03-28T23:47:44.793Z,6.53
2018-03-28T23:50:12.291Z,5.80
2018-03-28T23:52:40.515Z,6.93
2018-03-28T23:55:08.025Z,6.13
2018-03-28T23:57:35.486Z,5.80
